Fairacres, NM

5:31 AM MST on February 09, 2016 (GMT -0700)
Las Cruces International

Weather History for KLRU - November, 2012

Change the Weather History Date:

Thursday, November 8, 2012

  Actual Average Record
Temperature  
Mean Temperature 63 °F -  
Max Temperature 79 °F 63 °F 82 °F (2005)
Min Temperature 47 °F 41 °F 26 °F (2008)
Degree Days  
Heating Degree Days 2    
Growing Degree Days 13 (Base 50)    
Moisture  
Dew Point 24 °F    
Average Humidity 24    
Maximum Humidity 34    
Minimum Humidity 15    
Precipitation  
Precipitation 0.00 in - - ()
Sea Level Pressure  
Sea Level Pressure 30.05 in    
Wind  
Wind Speed 6 mph (SW)    
Max Wind Speed 18 mph    
Max Gust Speed 24 mph    
Visibility 10 miles    
Events      
Averages and records for this station are not official NWS values.
T = Trace of Precipitation, MM = Missing Value Source: NWS Daily Summary

Daily Weather History Graph

Daily Weather History Graph

Search for Another Location

Airport or City:

Trip Planner

Search our weather history database for the weather conditions in past years. The results will help you decide how hot, cold, wet, or windy it might be!

Date:

Astronomy

Nov. 08, 2012 Rise Set
Actual Time 6:31 AM MST 5:11 PM MST
Civil Twilight 6:05 AM MST 5:37 PM MST
Nautical Twilight 5:36 AM MST 6:06 PM MST
Astronomical Twilight 5:07 AM MST 6:35 PM MST
Moon 12:49 AM MST (11/8) 1:36 PM MST (11/8)
Length of Visible Light 11h 31m
Length of Day
10h 40m
Waning Crescent, 32% of the Moon is Illuminated
Nov 8
Waning Crescent
Nov 13
New
Nov 20
First Quarter
Nov 28
Full
Dec 6
Last Quarter

Hourly Weather History & Observations

Time (MST) Temp. Dew Point Humidity Pressure Visibility Wind Dir Wind Speed Gust Speed Precip Events Conditions
12:15 AM 49.5 °F 17.8 °F 29% 30.09 in 10.0 mi WNW 4.6 mph - N/A   Clear
12:35 AM 47.7 °F 17.8 °F 30% 30.09 in 10.0 mi WNW 4.6 mph - N/A   Clear
12:55 AM 50.0 °F 18.3 °F 29% 30.09 in 10.0 mi NW 5.8 mph - N/A   Clear
1:15 AM 48.9 °F 18.5 °F 30% 30.08 in 10.0 mi WNW 4.6 mph - N/A   Clear
1:35 AM 48.0 °F 18.9 °F 31% 30.08 in 10.0 mi Calm Calm - N/A   Clear
1:55 AM 52.2 °F 20.1 °F 28% 30.08 in 10.0 mi Calm Calm - N/A   Clear
2:15 AM 50.5 °F 19.8 °F 30% 30.08 in 10.0 mi East 3.5 mph - N/A   Clear
2:35 AM 48.4 °F 18.7 °F 31% 30.07 in 10.0 mi Calm Calm - N/A   Clear
2:55 AM 47.3 °F 18.0 °F 31% 30.07 in 10.0 mi East 3.5 mph - N/A   Clear
3:15 AM 51.1 °F 19.9 °F 29% 30.07 in 10.0 mi ENE 3.5 mph - N/A   Clear
3:35 AM 49.8 °F 19.4 °F 30% 30.07 in 10.0 mi Calm Calm - N/A   Clear
3:55 AM 48.2 °F 18.9 °F 31% 30.07 in 10.0 mi Calm Calm - N/A   Clear
4:15 AM 48.7 °F 19.0 °F 31% 30.07 in 10.0 mi East 3.5 mph - N/A   Clear
4:35 AM 51.8 °F 20.5 °F 29% 30.07 in 10.0 mi East 3.5 mph - N/A   Clear
4:55 AM 50.9 °F 20.3 °F 30% 30.07 in 10.0 mi Calm Calm - N/A   Clear
5:15 AM 50.0 °F 20.1 °F 31% 30.07 in 10.0 mi Calm Calm - N/A   Clear
5:35 AM 50.4 °F 20.5 °F 31% 30.07 in 10.0 mi SE 4.6 mph - N/A   Clear
5:55 AM 49.8 °F 20.3 °F 31% 30.08 in 10.0 mi SE 4.6 mph - N/A   Clear
6:15 AM 53.2 °F 21.4 °F 29% 30.08 in 10.0 mi SE 4.6 mph - N/A   Clear
6:35 AM 50.5 °F 20.7 °F 31% 30.08 in 10.0 mi SE 3.5 mph - N/A   Clear
6:55 AM 52.7 °F 21.6 °F 30% 30.08 in 10.0 mi SE 4.6 mph - N/A   Clear
7:15 AM 54.5 °F 21.9 °F 28% 30.09 in 10.0 mi SE 4.6 mph - N/A   Clear
7:35 AM 56.7 °F 22.6 °F 27% 30.09 in 10.0 mi SE 4.6 mph - N/A   Clear
7:55 AM 58.5 °F 22.5 °F 25% 30.09 in 10.0 mi SE 4.6 mph - N/A   Clear
8:15 AM 58.5 °F 22.5 °F 25% 30.10 in 10.0 mi SSE 5.8 mph - N/A   Clear
8:35 AM 59.9 °F 22.5 °F 24% 30.11 in 10.0 mi SSE 4.6 mph - N/A   Clear
8:55 AM 59.9 °F 22.8 °F 24% 30.10 in 10.0 mi SSE 4.6 mph - N/A   Clear
9:15 AM 60.8 °F 23.4 °F 24% 30.11 in 10.0 mi South 3.5 mph - N/A   Clear
9:35 AM 62.1 °F 23.4 °F 23% 30.11 in 10.0 mi SSW 3.5 mph - N/A   Clear
9:55 AM 65.5 °F 23.9 °F 21% 30.11 in 10.0 mi South 4.6 mph - N/A   Clear
10:15 AM 66.2 °F 23.9 °F 20% 30.10 in 10.0 mi South 3.5 mph - N/A   Clear
10:35 AM 68.5 °F 24.4 °F 19% 30.09 in 10.0 mi SSE 4.6 mph - N/A   Clear
10:55 AM 70.2 °F 24.6 °F 18% 30.08 in 10.0 mi Calm Calm - N/A   Clear
11:15 AM 70.9 °F 25.2 °F 18% 30.08 in 10.0 mi South 4.6 mph - N/A   Clear
11:35 AM 72.9 °F 25.5 °F 17% 30.07 in 10.0 mi SSE 4.6 mph - N/A   Clear
11:55 AM 74.7 °F 25.2 °F 16% 30.05 in 10.0 mi SE 5.8 mph - N/A   Clear
12:15 PM 75.0 °F 25.9 °F 16% 30.04 in 10.0 mi SSE 5.8 mph - N/A   Clear
12:35 PM 74.7 °F 26.6 °F 17% 30.03 in 10.0 mi South 5.8 mph - N/A   Scattered Clouds
12:55 PM 77.2 °F 27.0 °F 16% 30.02 in 10.0 mi SSE 6.9 mph - N/A   Clear
1:15 PM 78.4 °F 28.6 °F 16% 30.01 in 10.0 mi WSW 11.5 mph - N/A   Clear
1:35 PM 77.9 °F 29.8 °F 17% 30.01 in 10.0 mi WSW 12.7 mph 19.6 mph N/A   Clear
1:55 PM 78.1 °F 30.2 °F 17% 30.00 in 10.0 mi WSW 18.4 mph 21.9 mph N/A   Clear
2:15 PM 78.8 °F 29.7 °F 17% 29.99 in 10.0 mi WSW 15.0 mph 23.0 mph N/A   Clear
2:35 PM 78.4 °F 29.3 °F 17% 29.99 in 10.0 mi West 8.1 mph 12.7 mph N/A   Clear
2:55 PM 79.0 °F 28.8 °F 16% 29.99 in 10.0 mi West 16.1 mph - N/A   Clear
3:15 PM 78.8 °F 27.7 °F 15% 29.98 in 10.0 mi WSW 17.3 mph 23.0 mph N/A   Clear
3:35 PM 76.1 °F 26.1 °F 16% 29.99 in 10.0 mi WSW 15.0 mph 24.2 mph N/A   Clear
3:55 PM 77.2 °F 25.2 °F 15% 29.98 in 10.0 mi WSW 13.8 mph - N/A   Clear
4:15 PM 75.6 °F 26.4 °F 16% 29.99 in 10.0 mi WSW 15.0 mph - N/A   Clear
4:35 PM 74.8 °F 25.7 °F 16% 29.99 in 10.0 mi WSW 16.1 mph 19.6 mph N/A   Clear
4:55 PM 74.3 °F 26.1 °F 17% 29.99 in 10.0 mi WSW 12.7 mph 18.4 mph N/A   Scattered Clouds
5:15 PM 73.6 °F 26.2 °F 17% 29.99 in 10.0 mi WSW 11.5 mph - N/A   Scattered Clouds
5:35 PM 72.7 °F 25.7 °F 17% 29.99 in 10.0 mi WSW 10.4 mph - N/A   Clear
5:55 PM 71.6 °F 27.0 °F 19% 30.00 in 10.0 mi WSW 15.0 mph 23.0 mph N/A   Clear
6:15 PM 70.0 °F 28.9 °F 22% 30.00 in 10.0 mi West 10.4 mph - N/A   Clear
6:35 PM 68.9 °F 29.1 °F 23% 30.01 in 10.0 mi West 8.1 mph - N/A   Clear
6:55 PM 67.3 °F 28.9 °F 24% 30.01 in 10.0 mi West 8.1 mph - N/A   Clear
7:15 PM 65.8 °F 28.6 °F 25% 30.02 in 10.0 mi West 6.9 mph - N/A   Clear
7:35 PM 64.4 °F 27.9 °F 25% 30.02 in 10.0 mi West 5.8 mph - N/A   Clear
7:55 PM 63.7 °F 27.1 °F 25% 30.02 in 10.0 mi WSW 6.9 mph - N/A   Clear
8:15 PM 61.2 °F 27.1 °F 27% 30.02 in 10.0 mi West 8.1 mph - N/A   Clear
8:35 PM 60.1 °F 26.6 °F 28% 30.02 in 10.0 mi West 8.1 mph - N/A   Clear
8:55 PM 59.9 °F 25.9 °F 27% 30.03 in 10.0 mi West 8.1 mph - N/A   Clear
9:15 PM 59.9 °F 25.3 °F 27% 30.03 in 10.0 mi West 9.2 mph - N/A   Clear
9:35 PM 62.1 °F 25.3 °F 25% 30.04 in 10.0 mi West 8.1 mph - N/A   Clear
9:55 PM 61.2 °F 25.7 °F 26% 30.04 in 10.0 mi West 8.1 mph - N/A   Clear
10:15 PM 60.8 °F 25.3 °F 26% 30.04 in 10.0 mi West 8.1 mph - N/A   Clear
10:35 PM 61.2 °F 25.5 °F 26% 30.04 in 10.0 mi West 8.1 mph - N/A   Scattered Clouds
10:55 PM 59.9 °F 26.8 °F 28% 30.04 in 10.0 mi West 9.2 mph - N/A   Scattered Clouds
11:15 PM 60.3 °F 29.3 °F 31% 30.04 in 10.0 mi West 11.5 mph - N/A   Clear
11:35 PM 59.2 °F 29.7 °F 33% 30.04 in 10.0 mi West 8.1 mph - N/A   Clear
11:55 PM 58.6 °F 30.4 °F 34% 30.04 in 10.0 mi West 10.4 mph - N/A   Clear